sensor_id;sensor_type;location;lat;lon;timestamp;pressure;altitude;pressure_sealevel;temperature;humidity
57574;BME280;63722;48.858;21.906;2023-02-18T00:01:25;98332.53;;;21.83;35.89
57574;BME280;63722;48.858;21.906;2023-02-18T00:03:51;98332.53;;;21.83;35.80
57574;BME280;63722;48.858;21.906;2023-02-18T00:06:22;98334.97;;;21.90;35.68
57574;BME280;63722;48.858;21.906;2023-02-18T00:08:49;98323.75;;;21.88;35.69
57574;BME280;63722;48.858;21.906;2023-02-18T00:11:15;98309.84;;;21.86;35.91
57574;BME280;63722;48.858;21.906;2023-02-18T00:13:40;98327.47;;;21.87;35.63
57574;BME280;63722;48.858;21.906;2023-02-18T00:16:08;98326.13;;;21.84;35.82
57574;BME280;63722;48.858;21.906;2023-02-18T00:18:34;98334.13;;;21.84;36.04
57574;BME280;63722;48.858;21.906;2023-02-18T00:21:01;98332.25;;;21.79;36.33
57574;BME280;63722;48.858;21.906;2023-02-18T00:23:27;98335.19;;;21.78;35.93
57574;BME280;63722;48.858;21.906;2023-02-18T00:26:19;98323.47;;;21.84;35.67
57574;BME280;63722;48.858;21.906;2023-02-18T00:28:45;98335.47;;;21.81;36.31
57574;BME280;63722;48.858;21.906;2023-02-18T00:31:18;98328.78;;;21.84;35.89
57574;BME280;63722;48.858;21.906;2023-02-18T00:33:43;98325.88;;;21.86;35.68
57574;BME280;63722;48.858;21.906;2023-02-18T00:36:12;98322.66;;;21.84;35.99
57574;BME280;63722;48.858;21.906;2023-02-18T00:38:38;98320.25;;;21.82;36.03
57574;BME280;63722;48.858;21.906;2023-02-18T00:41:07;98312.25;;;21.82;36.14
57574;BME280;63722;48.858;21.906;2023-02-18T00:43:32;98309.03;;;21.80;36.01
57574;BME280;63722;48.858;21.906;2023-02-18T00:45:58;98303.44;;;21.81;35.98
57574;BME280;63722;48.858;21.906;2023-02-18T00:48:23;98306.13;;;21.81;35.88
57574;BME280;63722;48.858;21.906;2023-02-18T00:50:49;98289.84;;;21.83;35.95
57574;BME280;63722;48.858;21.906;2023-02-18T00:53:14;98276.44;;;21.73;36.09
57574;BME280;63722;48.858;21.906;2023-02-18T00:55:40;98279.94;;;21.78;35.91
57574;BME280;63722;48.858;21.906;2023-02-18T00:58:06;98277.28;;;21.78;36.07
57574;BME280;63722;48.858;21.906;2023-02-18T01:00:31;98276.19;;;21.79;35.94
57574;BME280;63722;48.858;21.906;2023-02-18T01:02:57;98268.50;;;21.83;35.98
57574;BME280;63722;48.858;21.906;2023-02-18T01:05:22;98277.28;;;21.78;35.94
57574;BME280;63722;48.858;21.906;2023-02-18T01:07:47;98280.47;;;21.80;36.16
57574;BME280;63722;48.858;21.906;2023-02-18T01:10:13;98290.31;;;21.75;35.80
57574;BME280;63722;48.858;21.906;2023-02-18T01:12:38;98275.66;;;21.77;35.91
57574;BME280;63722;48.858;21.906;2023-02-18T01:15:04;98286.59;;;21.81;36.09
57574;BME280;63722;48.858;21.906;2023-02-18T01:17:30;98275.94;;;21.81;35.92
57574;BME280;63722;48.858;21.906;2023-02-18T01:19:56;98289.81;;;21.78;35.68
57574;BME280;63722;48.858;21.906;2023-02-18T01:22:21;98301.56;;;21.77;36.20
57574;BME280;63722;48.858;21.906;2023-02-18T01:24:46;98294.59;;;21.76;36.14
57574;BME280;63722;48.858;21.906;2023-02-18T01:27:12;98299.41;;;21.79;36.07
57574;BME280;63722;48.858;21.906;2023-02-18T01:29:37;98295.66;;;21.75;36.16
57574;BME280;63722;48.858;21.906;2023-02-18T01:32:03;98274.63;;;21.78;36.08
57574;BME280;63722;48.858;21.906;2023-02-18T01:34:28;98290.63;;;21.78;36.00
57574;BME280;63722;48.858;21.906;2023-02-18T01:36:54;98297.53;;;21.79;35.94
57574;BME280;63722;48.858;21.906;2023-02-18T01:39:20;98273.78;;;21.73;36.15
57574;BME280;63722;48.858;21.906;2023-02-18T01:41:45;98286.06;;;21.79;35.86
57574;BME280;63722;48.858;21.906;2023-02-18T01:46:37;98278.06;;;21.79;35.85
57574;BME280;63722;48.858;21.906;2023-02-18T01:49:03;98298.88;;;21.77;36.00
57574;BME280;63722;48.858;21.906;2023-02-18T01:51:34;98323.19;;;21.86;35.89
57574;BME280;63722;48.858;21.906;2023-02-18T01:54:30;98294.09;;;21.79;36.01
57574;BME280;63722;48.858;21.906;2023-02-18T01:57:06;98282.63;;;21.78;35.99
57574;BME280;63722;48.858;21.906;2023-02-18T01:59:37;98288.22;;;21.77;35.96
57574;BME280;63722;48.858;21.906;2023-02-18T02:02:05;98280.22;;;21.77;35.96
57574;BME280;63722;48.858;21.906;2023-02-18T02:04:31;98278.06;;;21.74;36.07
57574;BME280;63722;48.858;21.906;2023-02-18T02:06:57;98277.28;;;21.78;35.98
57574;BME280;63722;48.858;21.906;2023-02-18T02:09:24;98289.28;;;21.81;35.80
57574;BME280;63722;48.858;21.906;2023-02-18T02:39:33;98290.31;;;21.70;36.23
57574;BME280;63722;48.858;21.906;2023-02-18T02:45:03;98272.72;;;21.74;35.94
57574;BME280;63722;48.858;21.906;2023-02-18T02:53:27;98268.97;;;21.70;35.95
57574;BME280;63722;48.858;21.906;2023-02-18T02:55:54;98271.09;;;21.68;36.04
57574;BME280;63722;48.858;21.906;2023-02-18T02:58:21;98258.28;;;21.70;36.18
57574;BME280;63722;48.858;21.906;2023-02-18T03:12:08;98310.09;;;21.74;35.96
57574;BME280;63722;48.858;21.906;2023-02-18T03:18:06;98292.72;;;21.71;36.05
57574;BME280;63722;48.858;21.906;2023-02-18T03:20:36;98289.78;;;21.73;36.28
57574;BME280;63722;48.858;21.906;2023-02-18T03:23:07;98282.03;;;21.71;35.91
57574;BME280;63722;48.858;21.906;2023-02-18T03:25:34;98281.78;;;21.78;35.66
57574;BME280;63722;48.858;21.906;2023-02-18T03:28:08;98290.84;;;21.72;36.15
57574;BME280;63722;48.858;21.906;2023-02-18T03:33:08;98279.09;;;21.68;36.29
57574;BME280;63722;48.858;21.906;2023-02-18T03:35:36;98271.63;;;21.64;36.17
57574;BME280;63722;48.858;21.906;2023-02-18T03:38:11;98298.56;;;21.68;35.97
57574;BME280;63722;48.858;21.906;2023-02-18T03:40:38;98296.97;;;21.67;36.02
57574;BME280;63722;48.858;21.906;2023-02-18T03:43:04;98321.53;;;21.69;36.23
57574;BME280;63722;48.858;21.906;2023-02-18T03:45:29;98307.09;;;21.65;35.87
57574;BME280;63722;48.858;21.906;2023-02-18T03:47:55;98295.13;;;21.68;35.91
57574;BME280;63722;48.858;21.906;2023-02-18T03:50:20;98320.19;;;21.67;36.14
57574;BME280;63722;48.858;21.906;2023-02-18T03:52:46;98322.56;;;21.63;35.87
57574;BME280;63722;48.858;21.906;2023-02-18T03:55:11;98356.50;;;21.73;36.15
57574;BME280;63722;48.858;21.906;2023-02-18T03:57:36;98361.31;;;21.71;35.96
57574;BME280;63722;48.858;21.906;2023-02-18T04:00:03;98340.47;;;21.68;36.02
57574;BME280;63722;48.858;21.906;2023-02-18T04:02:30;98354.63;;;21.73;36.02
57574;BME280;63722;48.858;21.906;2023-02-18T04:04:55;98356.22;;;21.69;35.93
57574;BME280;63722;48.858;21.906;2023-02-18T04:07:21;98381.84;;;21.70;36.14
57574;BME280;63722;48.858;21.906;2023-02-18T04:09:46;98396.53;;;21.73;35.98
57574;BME280;63722;48.858;21.906;2023-02-18T04:12:12;98377.34;;;21.76;35.99
57574;BME280;63722;48.858;21.906;2023-02-18T04:14:37;98355.41;;;21.69;36.12
57574;BME280;63722;48.858;21.906;2023-02-18T04:17:02;98386.91;;;21.67;36.06
57574;BME280;63722;48.858;21.906;2023-02-18T04:19:28;98424.28;;;21.72;35.88
57574;BME280;63722;48.858;21.906;2023-02-18T04:21:53;98411.50;;;21.74;35.76
57574;BME280;63722;48.858;21.906;2023-02-18T04:24:19;98361.81;;;21.68;36.19
57574;BME280;63722;48.858;21.906;2023-02-18T04:26:44;98363.16;;;21.70;36.07
57574;BME280;63722;48.858;21.906;2023-02-18T04:29:09;98358.06;;;21.63;36.14
57574;BME280;63722;48.858;21.906;2023-02-18T04:31:35;98355.38;;;21.63;35.99
57574;BME280;63722;48.858;21.906;2023-02-18T04:34:00;98353.81;;;21.68;36.15
57574;BME280;63722;48.858;21.906;2023-02-18T04:36:26;98365.00;;;21.64;36.08
57574;BME280;63722;48.858;21.906;2023-02-18T04:38:51;98357.00;;;21.64;36.10
57574;BME280;63722;48.858;21.906;2023-02-18T04:41:17;98369.25;;;21.60;36.06
57574;BME280;63722;48.858;21.906;2023-02-18T04:43:43;98340.22;;;21.69;36.12
57574;BME280;63722;48.858;21.906;2023-02-18T04:46:08;98332.22;;;21.69;36.04
57574;BME280;63722;48.858;21.906;2023-02-18T04:48:33;98328.19;;;21.67;36.25
57574;BME280;63722;48.858;21.906;2023-02-18T04:50:59;98347.91;;;21.66;35.96
57574;BME280;63722;48.858;21.906;2023-02-18T04:53:25;98349.53;;;21.61;36.12
57574;BME280;63722;48.858;21.906;2023-02-18T04:55:51;98353.78;;;21.62;35.98
57574;BME280;63722;48.858;21.906;2023-02-18T04:58:17;98329.25;;;21.66;35.87
57574;BME280;63722;48.858;21.906;2023-02-18T05:00:43;98333.53;;;21.67;36.13
57574;BME280;63722;48.858;21.906;2023-02-18T05:03:09;98323.91;;;21.66;36.03
57574;BME280;63722;48.858;21.906;2023-02-18T05:05:34;98347.66;;;21.67;36.09
57574;BME280;63722;48.858;21.906;2023-02-18T05:08:00;98362.09;;;21.71;35.91
57574;BME280;63722;48.858;21.906;2023-02-18T05:10:25;98344.72;;;21.63;35.87
57574;BME280;63722;48.858;21.906;2023-02-18T05:12:51;98321.25;;;21.66;36.04
57574;BME280;63722;48.858;21.906;2023-02-18T05:15:16;98350.84;;;21.64;36.00
57574;BME280;63722;48.858;21.906;2023-02-18T05:17:42;98370.59;;;21.63;36.22
57574;BME280;63722;48.858;21.906;2023-02-18T05:20:07;98339.38;;;21.63;36.00
57574;BME280;63722;48.858;21.906;2023-02-18T05:22:33;98342.03;;;21.63;36.19
57574;BME280;63722;48.858;21.906;2023-02-18T05:24:58;98343.66;;;21.64;35.90
57574;BME280;63722;48.858;21.906;2023-02-18T05:27:24;98353.25;;;21.66;36.23
57574;BME280;63722;48.858;21.906;2023-02-18T05:29:49;98368.72;;;21.63;36.11
57574;BME280;63722;48.858;21.906;2023-02-18T05:32:15;98356.75;;;21.66;35.93
57574;BME280;63722;48.858;21.906;2023-02-18T05:34:40;98359.69;;;21.64;35.98
57574;BME280;63722;48.858;21.906;2023-02-18T05:37:05;98339.13;;;21.65;36.19
57574;BME280;63722;48.858;21.906;2023-02-18T05:39:31;98338.28;;;21.59;36.27
57574;BME280;63722;48.858;21.906;2023-02-18T05:41:56;98348.75;;;21.66;36.00
57574;BME280;63722;48.858;21.906;2023-02-18T05:44:22;98356.44;;;21.62;36.06
57574;BME280;63722;48.858;21.906;2023-02-18T05:47:01;98356.50;;;21.68;36.11
57574;BME280;63722;48.858;21.906;2023-02-18T05:49:28;98359.94;;;21.63;36.07
57574;BME280;63722;48.858;21.906;2023-02-18T05:51:54;98375.13;;;21.62;35.88
57574;BME280;63722;48.858;21.906;2023-02-18T05:54:20;98373.53;;;21.61;36.21
57574;BME280;63722;48.858;21.906;2023-02-18T05:56:45;98396.47;;;21.62;36.04
57574;BME280;63722;48.858;21.906;2023-02-18T05:59:11;98407.97;;;21.63;36.12
57574;BME280;63722;48.858;21.906;2023-02-18T06:01:36;98398.34;;;21.62;36.05
57574;BME280;63722;48.858;21.906;2023-02-18T06:04:02;98407.66;;;21.59;36.16
57574;BME280;63722;48.858;21.906;2023-02-18T06:06:27;98409.56;;;21.64;36.30
57574;BME280;63722;48.858;21.906;2023-02-18T06:08:53;98412.47;;;21.62;36.26
57574;BME280;63722;48.858;21.906;2023-02-18T06:11:18;98396.47;;;21.62;36.14
57574;BME280;63722;48.858;21.906;2023-02-18T06:13:44;98388.19;;;21.64;35.86
57574;BME280;63722;48.858;21.906;2023-02-18T06:16:09;98402.13;;;21.66;35.78
57574;BME280;63722;48.858;21.906;2023-02-18T06:18:35;98415.72;;;21.64;35.94
57574;BME280;63722;48.858;21.906;2023-02-18T06:21:00;98405.56;;;21.67;35.98
57574;BME280;63722;48.858;21.906;2023-02-18T06:23:25;98393.03;;;21.67;36.11
57574;BME280;63722;48.858;21.906;2023-02-18T06:25:51;98412.22;;;21.64;36.06
57574;BME280;63722;48.858;21.906;2023-02-18T06:28:17;98403.94;;;21.60;36.16
57574;BME280;63722;48.858;21.906;2023-02-18T06:30:43;98387.91;;;21.55;36.29
57574;BME280;63722;48.858;21.906;2023-02-18T06:33:09;98394.38;;;21.64;35.91
57574;BME280;63722;48.858;21.906;2023-02-18T06:35:34;98401.53;;;21.64;36.04
57574;BME280;63722;48.858;21.906;2023-02-18T06:37:59;98389.53;;;21.61;36.01
57574;BME280;63722;48.858;21.906;2023-02-18T06:40:25;98399.69;;;21.64;36.15
57574;BME280;63722;48.858;21.906;2023-02-18T06:42:51;98414.09;;;21.63;35.92
57574;BME280;63722;48.858;21.906;2023-02-18T06:45:16;98424.50;;;21.65;35.91
57574;BME280;63722;48.858;21.906;2023-02-18T06:47:41;98421.84;;;21.65;35.97
57574;BME280;63722;48.858;21.906;2023-02-18T06:50:07;98418.31;;;21.59;36.07
57574;BME280;63722;48.858;21.906;2023-02-18T06:52:33;98417.88;;;21.68;35.99
57574;BME280;63722;48.858;21.906;2023-02-18T06:54:59;98429.59;;;21.67;35.91
57574;BME280;63722;48.858;21.906;2023-02-18T06:57:24;98422.91;;;21.64;36.04
57574;BME280;63722;48.858;21.906;2023-02-18T06:59:50;98427.69;;;21.62;36.09
57574;BME280;63722;48.858;21.906;2023-02-18T07:02:16;98437.88;;;21.70;35.71
57574;BME280;63722;48.858;21.906;2023-02-18T07:04:41;98443.44;;;21.63;35.88
57574;BME280;63722;48.858;21.906;2023-02-18T07:07:09;98450.66;;;21.63;36.28
57574;BME280;63722;48.858;21.906;2023-02-18T07:09:35;98446.66;;;21.66;36.45
57574;BME280;63722;48.858;21.906;2023-02-18T07:12:00;98435.94;;;21.60;36.04
57574;BME280;63722;48.858;21.906;2023-02-18T07:14:25;98432.25;;;21.67;36.00
57574;BME280;63722;48.858;21.906;2023-02-18T07:16:52;98433.31;;;21.66;35.88
57574;BME280;63722;48.858;21.906;2023-02-18T07:19:17;98437.06;;;21.64;36.02
57574;BME280;63722;48.858;21.906;2023-02-18T07:21:42;98436.53;;;21.68;35.95
57574;BME280;63722;48.858;21.906;2023-02-18T07:24:08;98432.00;;;21.68;36.06
57574;BME280;63722;48.858;21.906;2023-02-18T07:26:33;98438.66;;;21.66;36.13
57574;BME280;63722;48.858;21.906;2023-02-18T07:28:58;98449.06;;;21.67;36.17
57574;BME280;63722;48.858;21.906;2023-02-18T07:31:24;98447.22;;;21.68;36.18
57574;BME280;63722;48.858;21.906;2023-02-18T07:33:49;98457.13;;;21.72;35.76
57574;BME280;63722;48.858;21.906;2023-02-18T07:36:15;98445.63;;;21.72;36.08
57574;BME280;63722;48.858;21.906;2023-02-18T07:38:40;98435.97;;;21.66;35.99
57574;BME280;63722;48.858;21.906;2023-02-18T07:41:05;98438.66;;;21.66;35.92
57574;BME280;63722;48.858;21.906;2023-02-18T07:43:31;98438.66;;;21.66;36.05
57574;BME280;63722;48.858;21.906;2023-02-18T07:45:56;98432.53;;;21.65;36.00
57574;BME280;63722;48.858;21.906;2023-02-18T07:48:22;98435.69;;;21.62;36.09
57574;BME280;63722;48.858;21.906;2023-02-18T07:50:47;98427.97;;;21.66;36.03
57574;BME280;63722;48.858;21.906;2023-02-18T07:53:14;98435.16;;;21.60;35.99
57574;BME280;63722;48.858;21.906;2023-02-18T07:55:40;98431.41;;;21.61;36.16
57574;BME280;63722;48.858;21.906;2023-02-18T07:58:23;98441.28;;;21.60;36.21
57574;BME280;63722;48.858;21.906;2023-02-18T08:00:49;98436.50;;;21.62;36.07
57574;BME280;63722;48.858;21.906;2023-02-18T08:03:16;98441.28;;;21.60;36.32
57574;BME280;63722;48.858;21.906;2023-02-18T08:05:42;98446.63;;;21.60;36.14
57574;BME280;63722;48.858;21.906;2023-02-18T08:08:11;98452.50;;;21.62;36.15
57574;BME280;63722;48.858;21.906;2023-02-18T08:10:37;98452.75;;;21.61;36.08
57574;BME280;63722;48.858;21.906;2023-02-18T08:13:02;98447.16;;;21.62;36.17
57574;BME280;63722;48.858;21.906;2023-02-18T08:15:27;98447.72;;;21.64;36.08
57574;BME280;63722;48.858;21.906;2023-02-18T08:17:53;98449.56;;;21.64;36.06
57574;BME280;63722;48.858;21.906;2023-02-18T08:20:18;98446.13;;;21.63;36.08
57574;BME280;63722;48.858;21.906;2023-02-18T08:22:44;98439.66;;;21.59;35.79
57574;BME280;63722;48.858;21.906;2023-02-18T08:25:09;98450.59;;;21.58;35.94
57574;BME280;63722;48.858;21.906;2023-02-18T08:27:34;98462.91;;;21.64;36.06
57574;BME280;63722;48.858;21.906;2023-02-18T08:30:00;98467.72;;;21.62;36.00
57574;BME280;63722;48.858;21.906;2023-02-18T08:32:26;98467.44;;;21.58;36.23
57574;BME280;63722;48.858;21.906;2023-02-18T08:34:53;98465.81;;;21.57;35.97
57574;BME280;63722;48.858;21.906;2023-02-18T08:37:18;98452.75;;;21.61;36.03
57574;BME280;63722;48.858;21.906;2023-02-18T08:39:43;98455.16;;;21.62;36.15
57574;BME280;63722;48.858;21.906;2023-02-18T08:42:09;98452.75;;;21.61;36.05
57574;BME280;63722;48.858;21.906;2023-02-18T08:44:34;98461.84;;;21.60;36.12
57574;BME280;63722;48.858;21.906;2023-02-18T08:47:00;98460.22;;;21.59;36.29
57574;BME280;63722;48.858;21.906;2023-02-18T08:49:25;98461.84;;;21.60;35.97
57574;BME280;63722;48.858;21.906;2023-02-18T08:51:50;98465.28;;;21.55;36.24
57574;BME280;63722;48.858;21.906;2023-02-18T08:54:17;98464.19;;;21.56;36.18
57574;BME280;63722;48.858;21.906;2023-02-18T08:56:42;98457.28;;;21.55;36.30
57574;BME280;63722;48.858;21.906;2023-02-18T08:59:08;98458.09;;;21.61;36.27
57574;BME280;63722;48.858;21.906;2023-02-18T09:01:33;98453.88;;;21.65;36.06
57574;BME280;63722;48.858;21.906;2023-02-18T09:03:59;98449.84;;;21.62;36.08
57574;BME280;63722;48.858;21.906;2023-02-18T09:06:24;98441.53;;;21.54;36.33
57574;BME280;63722;48.858;21.906;2023-02-18T09:08:50;98440.19;;;21.56;36.13
57574;BME280;63722;48.858;21.906;2023-02-18T09:11:16;98421.00;;;21.59;36.03
57574;BME280;63722;48.858;21.906;2023-02-18T09:13:41;98418.31;;;21.59;36.19
57574;BME280;63722;48.858;21.906;2023-02-18T09:16:11;98426.91;;;21.61;36.22
57574;BME280;63722;48.858;21.906;2023-02-18T09:18:37;98425.25;;;21.55;35.93
57574;BME280;63722;48.858;21.906;2023-02-18T09:21:04;98418.59;;;21.58;36.21
57574;BME280;63722;48.858;21.906;2023-02-18T09:23:31;98419.44;;;21.63;35.96
57574;BME280;63722;48.858;21.906;2023-02-18T09:25:57;98421.56;;;21.61;36.08
57574;BME280;63722;48.858;21.906;2023-02-18T09:28:23;98425.28;;;21.60;35.87
57574;BME280;63722;48.858;21.906;2023-02-18T09:30:49;98428.78;;;21.66;36.20
57574;BME280;63722;48.858;21.906;2023-02-18T09:33:15;98434.34;;;21.59;36.01
57574;BME280;63722;48.858;21.906;2023-02-18T09:35:42;98430.34;;;21.62;36.12
57574;BME280;63722;48.858;21.906;2023-02-18T09:38:09;98443.97;;;21.60;35.87
57574;BME280;63722;48.858;21.906;2023-02-18T09:40:37;98432.22;;;21.61;35.89
57574;BME280;63722;48.858;21.906;2023-02-18T09:43:04;98437.06;;;21.64;35.95
57574;BME280;63722;48.858;21.906;2023-02-18T09:45:31;98429.06;;;21.64;36.08
57574;BME280;63722;48.858;21.906;2023-02-18T09:47:57;98429.81;;;21.60;36.06
57574;BME280;63722;48.858;21.906;2023-02-18T09:50:26;98433.81;;;21.62;36.09
57574;BME280;63722;48.858;21.906;2023-02-18T09:52:52;98433.03;;;21.62;35.89
57574;BME280;63722;48.858;21.906;2023-02-18T09:55:32;98432.53;;;21.65;36.01
57574;BME280;63722;48.858;21.906;2023-02-18T09:58:00;98438.38;;;21.67;35.92
57574;BME280;63722;48.858;21.906;2023-02-18T10:00:34;98438.91;;;21.64;36.07
57574;BME280;63722;48.858;21.906;2023-02-18T10:03:18;98446.41;;;21.67;35.92
57574;BME280;63722;48.858;21.906;2023-02-18T10:08:43;98440.25;;;21.67;36.08
57574;BME280;63722;48.858;21.906;2023-02-18T10:11:11;98438.09;;;21.63;36.05
57574;BME280;63722;48.858;21.906;2023-02-18T10:13:40;98439.72;;;21.64;36.04
57574;BME280;63722;48.858;21.906;2023-02-18T10:16:07;98427.44;;;21.63;35.94
57574;BME280;63722;48.858;21.906;2023-02-18T10:18:44;98449.03;;;21.62;36.18
57574;BME280;63722;48.858;21.906;2023-02-18T10:21:16;98441.03;;;21.62;36.00
57574;BME280;63722;48.858;21.906;2023-02-18T10:23:59;98434.66;;;21.63;36.58
57574;BME280;63722;48.858;21.906;2023-02-18T10:26:26;98426.59;;;21.58;36.08
57574;BME280;63722;48.858;21.906;2023-02-18T10:28:53;98413.81;;;21.60;36.02
57574;BME280;63722;48.858;21.906;2023-02-18T10:31:28;98416.22;;;21.61;36.25
57574;BME280;63722;48.858;21.906;2023-02-18T10:34:11;98405.28;;;21.63;36.00
57574;BME280;63722;48.858;21.906;2023-02-18T10:36:48;98402.38;;;21.64;36.08
57574;BME280;63722;48.858;21.906;2023-02-18T10:41:56;98402.31;;;21.59;35.95
57574;BME280;63722;48.858;21.906;2023-02-18T10:44:39;98397.53;;;21.61;35.85
57574;BME280;63722;48.858;21.906;2023-02-18T10:49:57;98384.16;;;21.56;36.20
57574;BME280;63722;48.858;21.906;2023-02-18T10:52:25;98384.72;;;21.58;36.35
57574;BME280;63722;48.858;21.906;2023-02-18T10:55:00;98388.44;;;21.57;36.13
57574;BME280;63722;48.858;21.906;2023-02-18T10:57:29;98385.22;;;21.55;36.11
57574;BME280;63722;48.858;21.906;2023-02-18T11:00:00;98374.03;;;21.58;35.90
57574;BME280;63722;48.858;21.906;2023-02-18T11:02:30;98377.50;;;21.54;35.98
57574;BME280;63722;48.858;21.906;2023-02-18T11:04:58;98375.63;;;21.54;36.13
57574;BME280;63722;48.858;21.906;2023-02-18T11:07:32;98370.81;;;21.56;36.18
57574;BME280;63722;48.858;21.906;2023-02-18T11:10:15;98352.97;;;21.57;36.01
57574;BME280;63722;48.858;21.906;2023-02-18T11:12:45;98354.59;;;21.63;35.96
57574;BME280;63722;48.858;21.906;2023-02-18T11:17:41;98344.56;;;21.43;36.42
57574;BME280;63722;48.858;21.906;2023-02-18T11:22:56;98350.97;;;21.47;36.15
57574;BME280;63722;48.858;21.906;2023-02-18T11:25:27;98335.56;;;21.49;36.12
57574;BME280;63722;48.858;21.906;2023-02-18T11:28:00;98348.81;;;21.44;36.33
57574;BME280;63722;48.858;21.906;2023-02-18T11:30:34;98352.06;;;21.46;36.26
57574;BME280;63722;48.858;21.906;2023-02-18T11:35:53;98329.09;;;21.40;36.39
57574;BME280;63722;48.858;21.906;2023-02-18T11:38:26;98326.19;;;21.46;36.23
57574;BME280;63722;48.858;21.906;2023-02-18T11:40:55;98314.41;;;21.42;36.24
57574;BME280;63722;48.858;21.906;2023-02-18T11:43:26;98299.75;;;21.45;36.21
57574;BME280;63722;48.858;21.906;2023-02-18T11:46:15;98299.50;;;21.46;36.26
57574;BME280;63722;48.858;21.906;2023-02-18T11:48:41;98289.09;;;21.45;36.28
57574;BME280;63722;48.858;21.906;2023-02-18T11:51:24;98277.63;;;21.44;36.11
57574;BME280;63722;48.858;21.906;2023-02-18T11:56:30;98284.28;;;21.42;36.18
57574;BME280;63722;48.858;21.906;2023-02-18T11:58:56;98294.16;;;21.41;36.43
57574;BME280;63722;48.858;21.906;2023-02-18T12:01:40;98289.09;;;21.45;36.19
57574;BME280;63722;48.858;21.906;2023-02-18T12:04:47;98292.88;;;21.49;36.10
57574;BME280;63722;48.858;21.906;2023-02-18T12:07:42;98281.38;;;21.49;36.18
57574;BME280;63722;48.858;21.906;2023-02-18T12:10:38;98288.03;;;21.46;36.15
57574;BME280;63722;48.858;21.906;2023-02-18T12:13:23;98293.38;;;21.46;36.08
57574;BME280;63722;48.858;21.906;2023-02-18T12:27:09;98272.81;;;21.46;36.14
57574;BME280;63722;48.858;21.906;2023-02-18T12:35:40;98269.41;;;21.51;35.85
57574;BME280;63722;48.858;21.906;2023-02-18T12:38:37;98262.16;;;21.46;36.13
57574;BME280;63722;48.858;21.906;2023-02-18T12:44:03;98266.13;;;21.44;36.19
57574;BME280;63722;48.858;21.906;2023-02-18T13:05:31;98271.44;;;21.34;36.27
57574;BME280;63722;48.858;21.906;2023-02-18T13:08:34;98238.91;;;21.37;36.12
57574;BME280;63722;48.858;21.906;2023-02-18T13:16:27;98238.06;;;21.26;36.28
57574;BME280;63722;48.858;21.906;2023-02-18T13:21:53;98224.69;;;21.21;36.38
57574;BME280;63722;48.858;21.906;2023-02-18T13:24:33;98228.69;;;21.23;36.51
57574;BME280;63722;48.858;21.906;2023-02-18T13:27:23;98242.63;;;21.31;36.15
57574;BME280;63722;48.858;21.906;2023-02-18T13:35:48;98219.09;;;21.22;36.33
57574;BME280;63722;48.858;21.906;2023-02-18T13:41:00;98208.16;;;21.19;36.29
57574;BME280;63722;48.858;21.906;2023-02-18T13:46:21;98214.06;;;21.26;36.29
57574;BME280;63722;48.858;21.906;2023-02-18T13:51:40;98203.09;;;21.22;36.36
57574;BME280;63722;48.858;21.906;2023-02-18T13:56:43;98191.56;;;21.11;36.32
57574;BME280;63722;48.858;21.906;2023-02-18T13:59:16;98184.91;;;21.09;36.44
57574;BME280;63722;48.858;21.906;2023-02-18T14:01:45;98180.13;;;21.11;36.42
57574;BME280;63722;48.858;21.906;2023-02-18T14:09:53;98159.31;;;21.08;36.44
57574;BME280;63722;48.858;21.906;2023-02-18T14:25:54;98149.41;;;21.03;36.59
57574;BME280;63722;48.858;21.906;2023-02-18T14:31:04;98142.19;;;20.99;36.89
57574;BME280;63722;48.858;21.906;2023-02-18T14:39:01;98141.13;;;20.95;36.58
57574;BME280;63722;48.858;21.906;2023-02-18T14:44:31;98132.06;;;20.96;36.54
57574;BME280;63722;48.858;21.906;2023-02-18T14:52:04;98132.03;;;20.90;36.64
57574;BME280;63722;48.858;21.906;2023-02-18T14:54:31;98126.72;;;20.90;36.37
57574;BME280;63722;48.858;21.906;2023-02-18T14:57:00;98121.38;;;20.90;36.77
57574;BME280;63722;48.858;21.906;2023-02-18T14:59:33;98118.97;;;20.89;36.65
57574;BME280;63722;48.858;21.906;2023-02-18T15:01:59;98116.03;;;20.85;36.71
57574;BME280;63722;48.858;21.906;2023-02-18T15:04:25;98106.44;;;20.84;36.63
57574;BME280;63722;48.858;21.906;2023-02-18T15:07:01;98112.28;;;20.86;36.35
57574;BME280;63722;48.858;21.906;2023-02-18T15:09:27;98099.47;;;20.83;36.65
57574;BME280;63722;48.858;21.906;2023-02-18T15:12:00;98092.31;;;20.84;36.61
57574;BME280;63722;48.858;21.906;2023-02-18T15:14:32;98077.63;;;20.81;36.75
57574;BME280;63722;48.858;21.906;2023-02-18T15:16:58;98065.34;;;20.80;36.71
57574;BME280;63722;48.858;21.906;2023-02-18T15:19:29;98060.84;;;20.81;36.64
57574;BME280;63722;48.858;21.906;2023-02-18T15:21:56;98066.44;;;20.79;36.69
57574;BME280;63722;48.858;21.906;2023-02-18T15:24:32;98054.69;;;20.80;36.53
57574;BME280;63722;48.858;21.906;2023-02-18T15:27:04;98043.50;;;20.78;36.66
57574;BME280;63722;48.858;21.906;2023-02-18T15:29:35;98038.44;;;20.77;36.70
57574;BME280;63722;48.858;21.906;2023-02-18T15:32:15;98037.38;;;20.78;36.99
57574;BME280;63722;48.858;21.906;2023-02-18T15:34:42;98034.44;;;20.74;36.60
57574;BME280;63722;48.858;21.906;2023-02-18T15:37:12;98025.38;;;20.75;36.89
57574;BME280;63722;48.858;21.906;2023-02-18T15:39:40;98036.03;;;20.75;36.85
57574;BME280;63722;48.858;21.906;2023-02-18T15:44:52;98025.38;;;20.75;36.71
57574;BME280;63722;48.858;21.906;2023-02-18T15:47:20;98018.44;;;20.69;36.88
57574;BME280;63722;48.858;21.906;2023-02-18T15:49:49;98022.16;;;20.68;36.78
57574;BME280;63722;48.858;21.906;2023-02-18T15:52:23;98016.81;;;20.68;37.07
57574;BME280;63722;48.858;21.906;2023-02-18T15:54:49;98012.00;;;20.65;36.78